Time;durP1;ratioP1;P1;durP2;ratioP2;P2;SDS_P1;SDS_P2;PMS_P1;PMS_P2;Temp;Humidity;BMP_temperature;BMP_pressure;BME280_temperature;BME280_humidity;BME280_pressure;Samples;Min_cycle;Max_cycle;Signal;HPM_P1;HPM_P2
2022/05/17 00:02:19;;;;;;;5.80;0.70;;;21.10;99.90;;;;;;5093561;28;20175;-69
2022/05/17 00:04:47;;;;;;;3.67;0.97;;;20.90;99.90;;;;;;5092963;28;20206;-68
2022/05/17 00:07:15;;;;;;;3.20;1.00;;;20.80;99.90;;;;;;5093399;28;20203;-69
2022/05/17 00:09:42;;;;;;;2.37;0.83;;;20.80;99.90;;;;;;5093645;28;20178;-68
2022/05/17 00:12:11;;;;;;;2.73;0.90;;;20.50;99.90;;;;;;5092330;28;20179;-69
2022/05/17 00:14:38;;;;;;;0.97;0.40;;;21.20;99.90;;;;;;5093557;28;20258;-69
2022/05/17 00:17:06;;;;;;;3.10;0.60;;;21.30;99.90;;;;;;5093141;28;20175;-68
2022/05/17 00:19:34;;;;;;;2.87;0.87;;;21.30;99.90;;;;;;5093495;28;20245;-68
2022/05/17 00:22:02;;;;;;;3.67;0.93;;;21.90;99.90;;;;;;5092939;28;20179;-68
2022/05/17 00:24:30;;;;;;;6.77;1.00;;;21.50;99.90;;;;;;5091470;28;20190;-68
2022/05/17 00:26:58;;;;;;;2.33;0.90;;;22.00;99.90;;;;;;5091430;28;20182;-68
2022/05/17 00:29:27;;;;;;;3.23;0.80;;;21.60;99.90;;;;;;5091259;28;20179;-70
2022/05/17 00:31:55;;;;;;;6.40;0.70;;;21.80;99.90;;;;;;5088197;28;20179;-69
2022/05/17 00:34:23;;;;;;;3.80;0.70;;;22.00;99.90;;;;;;5091121;28;20200;-70
2022/05/17 00:36:50;;;;;;;28.27;2.50;;;21.70;99.90;;;;;;5090676;28;20273;-69
2022/05/17 00:39:18;;;;;;;2.87;0.70;;;21.40;99.90;;;;;;5091390;28;20238;-69
2022/05/17 00:41:46;;;;;;;2.43;0.60;;;21.50;99.90;;;;;;5091243;28;20221;-69
2022/05/17 00:46:59;;;;;;;2.23;0.50;;;22.30;99.90;;;;;;5091498;28;20270;-69
2022/05/17 00:49:37;;;;;;;3.17;0.60;;;22.40;99.90;;;;;;5091673;28;20181;-69
2022/05/17 00:52:12;;;;;;;3.23;0.70;;;22.70;99.90;;;;;;5091830;28;20183;-69
2022/05/17 00:54:42;;;;;;;4.33;0.57;;;22.80;99.90;;;;;;5091448;28;20183;-69
2022/05/17 00:57:37;;;;;;;2.50;0.60;;;22.90;99.90;;;;;;5091358;28;20264;-69
2022/05/17 01:00:11;;;;;;;3.30;0.80;;;23.00;99.90;;;;;;5091088;28;20688;-69
2022/05/17 01:02:41;;;;;;;3.77;0.80;;;22.10;99.90;;;;;;5091722;28;20173;-69
2022/05/17 01:05:09;;;;;;;1.30;0.80;;;22.10;99.90;;;;;;5091177;28;20178;-69
2022/05/17 01:07:46;;;;;;;2.30;0.50;;;22.50;99.90;;;;;;5091515;28;20176;-70
2022/05/17 01:10:14;;;;;;;1.10;0.50;;;22.50;99.90;;;;;;5091408;28;20179;-67
2022/05/17 01:12:42;;;;;;;4.60;0.70;;;22.90;99.90;;;;;;5091554;28;20193;-68
2022/05/17 01:15:12;;;;;;;1.43;0.60;;;22.90;99.90;;;;;;5090751;28;20183;-68
2022/05/17 01:17:41;;;;;;;2.30;0.60;;;23.50;99.90;;;;;;5095238;28;20231;-69
2022/05/17 01:20:12;;;;;;;3.80;0.60;;;23.70;99.90;;;;;;5095332;28;20199;-69
2022/05/17 01:22:40;;;;;;;3.63;0.67;;;23.20;99.90;;;;;;5095187;28;20179;-69
2022/05/17 01:25:08;;;;;;;1.73;0.70;;;23.30;99.90;;;;;;5095254;28;20210;-69
2022/05/17 01:27:46;;;;;;;3.07;0.67;;;23.60;99.90;;;;;;5095000;28;20215;-69
2022/05/17 01:30:24;;;;;;;2.37;0.60;;;23.20;99.90;;;;;;5094977;28;20175;-69
2022/05/17 01:32:52;;;;;;;1.93;0.40;;;22.80;99.90;;;;;;5093580;28;20192;-69
2022/05/17 01:35:21;;;;;;;1.67;0.63;;;23.20;99.90;;;;;;5095196;28;20183;-68
2022/05/17 01:37:56;;;;;;;1.90;0.60;;;23.10;99.90;;;;;;5095028;28;20301;-68
2022/05/17 01:40:26;;;;;;;3.23;0.53;;;23.60;99.90;;;;;;5095176;28;20655;-69
2022/05/17 01:42:53;;;;;;;1.77;0.47;;;24.00;99.90;;;;;;5094780;28;20175;-68
2022/05/17 01:45:21;;;;;;;1.80;0.47;;;24.30;99.90;;;;;;5094734;28;20183;-68
2022/05/17 01:47:50;;;;;;;2.10;0.37;;;24.10;99.90;;;;;;5094492;28;20191;-69
2022/05/17 01:50:17;;;;;;;3.20;0.53;;;24.10;99.90;;;;;;5094469;28;20525;-69
2022/05/17 01:52:45;;;;;;;3.23;0.63;;;24.10;99.90;;;;;;5094322;28;20191;-69
2022/05/17 01:55:13;;;;;;;2.50;0.40;;;24.00;99.90;;;;;;5094427;28;20266;-69
2022/05/17 01:57:41;;;;;;;1.80;0.40;;;23.90;99.90;;;;;;5094011;28;20237;-67
2022/05/17 02:00:12;;;;;;;2.90;0.43;;;24.20;99.90;;;;;;5094924;28;20521;-68
2022/05/17 02:02:40;;;;;;;2.37;0.60;;;23.60;99.90;;;;;;5094598;28;20229;-69
2022/05/17 02:05:09;;;;;;;6.73;0.60;;;23.90;99.90;;;;;;5094184;28;20194;-68
2022/05/17 02:07:36;;;;;;;1.10;0.40;;;23.60;99.00;;;;;;5094354;28;20289;-68
2022/05/17 02:10:05;;;;;;;2.20;0.67;;;23.30;99.90;;;;;;5094050;28;20190;-68
2022/05/17 02:12:33;;;;;;;3.00;0.50;;;23.20;99.90;;;;;;5094325;28;20207;-68
2022/05/17 02:15:03;;;;;;;1.37;0.50;;;23.50;99.90;;;;;;5094430;28;20180;-68
2022/05/17 02:17:30;;;;;;;2.67;0.53;;;24.40;99.90;;;;;;5094055;28;20200;-68
2022/05/17 02:20:01;;;;;;;1.27;0.40;;;23.90;99.10;;;;;;5094018;28;20191;-68
2022/05/17 02:22:29;;;;;;;2.47;0.50;;;23.80;99.90;;;;;;5094177;28;20236;-69
2022/05/17 02:24:56;;;;;;;4.40;0.57;;;24.60;98.30;;;;;;5094221;28;20648;-68
2022/05/17 02:27:24;;;;;;;0.67;0.30;;;24.60;98.10;;;;;;5093210;28;20202;-69
2022/05/17 02:29:52;;;;;;;2.63;0.60;;;23.70;96.10;;;;;;5092616;28;20187;-69
2022/05/17 02:32:20;;;;;;;1.90;0.70;;;23.50;99.90;;;;;;5090524;28;20240;-69
2022/05/17 02:34:47;;;;;;;1.37;0.50;;;23.80;98.60;;;;;;5093655;28;20187;-68
2022/05/17 02:37:15;;;;;;;2.37;0.50;;;23.90;99.60;;;;;;5093506;28;20595;-69
2022/05/17 02:39:45;;;;;;;1.50;0.63;;;24.20;98.90;;;;;;5093589;28;20655;-69
2022/05/17 02:42:13;;;;;;;4.83;0.53;;;25.00;97.90;;;;;;5093814;28;20183;-69
2022/05/17 02:44:41;;;;;;;3.13;0.47;;;25.00;94.40;;;;;;5093632;28;20195;-69
2022/05/17 02:47:10;;;;;;;2.97;0.50;;;24.80;97.30;;;;;;5093933;28;20179;-70
2022/05/17 02:49:40;;;;;;;2.03;0.83;;;25.40;96.90;;;;;;5093834;28;20645;-70
2022/05/17 02:52:08;;;;;;;3.37;0.37;;;25.80;98.30;;;;;;5093574;28;20521;-70
2022/05/17 02:54:37;;;;;;;1.17;0.50;;;26.60;95.10;;;;;;5093509;28;20665;-69
2022/05/17 02:57:06;;;;;;;3.30;0.37;;;25.30;94.70;;;;;;5093560;28;20222;-69
2022/05/17 02:59:35;;;;;;;2.43;0.60;;;24.90;94.70;;;;;;5093605;28;20227;-69
2022/05/17 03:02:03;;;;;;;2.77;0.53;;;25.00;95.70;;;;;;5093239;28;20660;-69
2022/05/17 03:04:32;;;;;;;1.83;0.50;;;25.70;94.80;;;;;;5092960;28;20187;-70
2022/05/17 03:06:59;;;;;;;3.63;0.40;;;25.70;93.50;;;;;;5093264;28;20538;-70
2022/05/17 03:09:27;;;;;;;2.03;0.63;;;26.20;91.90;;;;;;5093149;28;20183;-70
2022/05/17 03:11:55;;;;;;;4.17;0.50;;;26.00;90.00;;;;;;5093314;28;20179;-69
2022/05/17 03:14:23;;;;;;;4.43;0.80;;;26.10;93.00;;;;;;5092719;28;20183;-69
2022/05/17 03:16:50;;;;;;;1.20;0.40;;;25.70;93.40;;;;;;5092604;28;20185;-69
2022/05/17 03:19:19;;;;;;;2.37;0.40;;;25.90;94.90;;;;;;5092947;28;20208;-70
2022/05/17 03:21:48;;;;;;;4.20;0.60;;;25.60;93.80;;;;;;5092108;28;20184;-69
2022/05/17 03:24:16;;;;;;;1.80;0.50;;;26.10;93.70;;;;;;5092455;28;20187;-69
2022/05/17 03:26:44;;;;;;;1.17;0.53;;;25.70;91.70;;;;;;5093122;28;20320;-68
2022/05/17 03:29:12;;;;;;;1.50;0.40;;;25.50;92.50;;;;;;5093370;28;20225;-68
2022/05/17 03:31:40;;;;;;;2.30;0.70;;;25.30;90.70;;;;;;5091635;28;20227;-68
2022/05/17 03:34:09;;;;;;;4.17;0.70;;;25.00;91.50;;;;;;5093018;28;20172;-68
2022/05/17 03:36:37;;;;;;;4.57;0.60;;;25.50;95.20;;;;;;5092878;28;20183;-68
2022/05/17 03:39:04;;;;;;;5.60;0.87;;;26.00;92.50;;;;;;5091477;28;20211;-68
2022/05/17 03:41:32;;;;;;;1.70;0.50;;;25.80;91.20;;;;;;5092144;28;20201;-70
2022/05/17 03:44:00;;;;;;;5.53;0.60;;;25.40;93.20;;;;;;5092802;28;20671;-68
2022/05/17 03:46:27;;;;;;;0.97;0.50;;;25.80;91.80;;;;;;5092892;28;20228;-69
2022/05/17 03:48:55;;;;;;;3.00;0.90;;;25.60;90.00;;;;;;5092713;28;20198;-68
2022/05/17 03:51:23;;;;;;;3.57;0.50;;;25.20;91.40;;;;;;5091843;28;20183;-69
2022/05/17 03:53:51;;;;;;;2.27;0.53;;;25.70;94.80;;;;;;5092124;28;20191;-68
2022/05/17 03:56:19;;;;;;;1.30;0.53;;;26.40;93.00;;;;;;5092338;28;20179;-71
2022/05/17 03:58:46;;;;;;;2.30;0.67;;;26.90;91.20;;;;;;5092199;28;20243;-70
2022/05/17 04:01:14;;;;;;;4.10;0.50;;;27.00;87.70;;;;;;5092513;28;20172;-70
2022/05/17 04:03:43;;;;;;;4.57;0.60;;;26.90;84.90;;;;;;5092512;28;20180;-70
2022/05/17 04:06:11;;;;;;;2.33;0.50;;;26.50;84.20;;;;;;5092444;28;20229;-70
2022/05/17 04:08:40;;;;;;;0.93;0.40;;;26.50;82.80;;;;;;5092431;28;20244;-70
2022/05/17 04:11:08;;;;;;;3.33;0.77;;;26.60;88.10;;;;;;5091055;28;20182;-71
2022/05/17 04:13:35;;;;;;;3.83;0.43;;;26.90;90.00;;;;;;5092316;28;20190;-71
2022/05/17 04:16:03;;;;;;;2.57;0.70;;;26.30;85.60;;;;;;5091747;28;20224;-68
2022/05/17 04:18:31;;;;;;;2.37;0.70;;;26.10;85.80;;;;;;5092118;28;20321;-70
2022/05/17 04:21:01;;;;;;;3.07;0.47;;;26.00;84.70;;;;;;5091604;28;20198;-69
2022/05/17 04:23:29;;;;;;;2.13;0.80;;;25.40;91.00;;;;;;5103263;28;20262;-69
2022/05/17 04:25:58;;;;;;;3.90;0.63;;;25.40;89.30;;;;;;5070467;28;20187;-68
2022/05/17 04:28:26;;;;;;;5.47;0.80;;;24.80;91.10;;;;;;5085652;28;20660;-68
2022/05/17 04:30:53;;;;;;;2.67;0.47;;;25.20;92.90;;;;;;5092053;28;20175;-69
2022/05/17 04:33:21;;;;;;;1.50;0.70;;;25.10;91.80;;;;;;5092122;28;20274;-67
2022/05/17 04:35:49;;;;;;;2.70;0.60;;;25.30;89.40;;;;;;5090544;28;20175;-67
2022/05/17 04:38:17;;;;;;;2.70;0.60;;;25.20;90.10;;;;;;5091639;28;20207;-67
2022/05/17 04:40:45;;;;;;;2.90;0.70;;;25.20;92.30;;;;;;5091742;28;20592;-70
2022/05/17 04:43:13;;;;;;;1.07;0.50;;;25.50;91.00;;;;;;5091836;28;20183;-69
2022/05/17 04:45:44;;;;;;;3.33;0.70;;;25.50;90.70;;;;;;5091674;28;20219;-69
2022/05/17 04:48:12;;;;;;;1.73;0.47;;;25.40;91.20;;;;;;5092089;28;20182;-68
2022/05/17 04:50:40;;;;;;;1.63;0.47;;;25.60;91.30;;;;;;5092637;28;20171;-70
2022/05/17 04:53:08;;;;;;;2.60;0.80;;;26.00;90.50;;;;;;5095779;28;20592;-69
2022/05/17 04:55:36;;;;;;;5.40;0.90;;;25.10;90.20;;;;;;5094668;28;20174;-69
2022/05/17 04:58:04;;;;;;;2.50;0.73;;;25.30;90.80;;;;;;5095643;28;20287;-70
2022/05/17 05:00:32;;;;;;;1.60;0.70;;;25.60;94.70;;;;;;5094666;28;20179;-70
2022/05/17 05:02:59;;;;;;;3.43;0.60;;;25.70;93.80;;;;;;5095901;28;20229;-69
2022/05/17 05:05:27;;;;;;;1.30;0.50;;;25.80;87.20;;;;;;5095143;28;20183;-69
2022/05/17 05:07:55;;;;;;;3.57;0.70;;;25.40;90.60;;;;;;5094896;28;20253;-66
2022/05/17 05:10:24;;;;;;;5.23;0.80;;;25.00;91.10;;;;;;5095114;28;20179;-66
2022/05/17 05:12:51;;;;;;;2.53;0.53;;;24.70;89.20;;;;;;5095226;28;20179;-68
2022/05/17 05:15:19;;;;;;;1.30;0.40;;;24.20;92.60;;;;;;5095731;28;20185;-69
2022/05/17 05:17:47;;;;;;;6.93;0.73;;;24.10;95.10;;;;;;5095380;28;20211;-68
2022/05/17 05:20:16;;;;;;;2.47;0.50;;;24.00;96.30;;;;;;5095065;28;20240;-68
2022/05/17 05:22:44;;;;;;;3.27;0.83;;;24.00;95.70;;;;;;5095586;28;20176;-69
2022/05/17 05:25:14;;;;;;;3.93;0.70;;;24.10;95.30;;;;;;5095188;28;20266;-69
2022/05/17 05:27:42;;;;;;;2.33;0.60;;;24.00;96.00;;;;;;5095504;28;20171;-68
2022/05/17 05:30:13;;;;;;;3.87;0.70;;;23.90;92.60;;;;;;5095113;28;20279;-69
2022/05/17 05:32:40;;;;;;;4.27;0.90;;;23.70;94.30;;;;;;5095429;28;20176;-68
2022/05/17 05:35:09;;;;;;;2.53;0.70;;;22.80;97.20;;;;;;5095229;28;20167;-67
2022/05/17 05:37:37;;;;;;;3.80;0.70;;;22.30;98.10;;;;;;5095008;28;20202;-69
2022/05/17 05:40:06;;;;;;;1.90;0.60;;;21.90;99.90;;;;;;5094181;28;20270;-69
2022/05/17 05:42:33;;;;;;;4.13;0.73;;;21.60;99.90;;;;;;5095221;28;20175;-70
2022/05/17 05:45:01;;;;;;;1.83;0.57;;;21.40;99.90;;;;;;5095126;28;20183;-70
2022/05/17 05:47:29;;;;;;;2.47;0.73;;;21.30;99.90;;;;;;5095127;28;20179;-69
2022/05/17 05:49:57;;;;;;;2.07;0.73;;;21.20;99.90;;;;;;5094970;28;20219;-67
2022/05/17 05:52:25;;;;;;;1.43;0.63;;;21.00;99.90;;;;;;5094910;28;20269;-68
2022/05/17 05:54:53;;;;;;;3.40;0.70;;;20.90;99.90;;;;;;5094972;28;20185;-67
2022/05/17 05:57:21;;;;;;;1.93;0.60;;;20.90;99.90;;;;;;5094423;28;20960;-68
2022/05/17 05:59:48;;;;;;;4.87;0.70;;;20.90;99.90;;;;;;5093549;28;20258;-68
2022/05/17 06:02:20;;;;;;;3.57;0.70;;;20.80;99.90;;;;;;5093477;28;20215;-68
2022/05/17 06:04:48;;;;;;;4.00;0.80;;;20.70;99.90;;;;;;5094624;28;20172;-68
2022/05/17 06:07:16;;;;;;;3.17;1.00;;;20.70;99.90;;;;;;5094564;28;20172;-68
2022/05/17 06:09:45;;;;;;;3.17;0.87;;;20.60;99.90;;;;;;5094697;28;20186;-68
2022/05/17 06:12:13;;;;;;;2.17;0.57;;;20.60;99.90;;;;;;5094459;28;20208;-67
2022/05/17 06:14:41;;;;;;;3.37;0.73;;;20.40;99.90;;;;;;5094436;28;20170;-68
2022/05/17 06:17:09;;;;;;;0.90;0.60;;;20.30;99.90;;;;;;5092210;28;20183;-69
2022/05/17 06:19:38;;;;;;;3.33;0.70;;;20.20;99.90;;;;;;5094009;28;20699;-72
2022/05/17 06:22:05;;;;;;;3.17;0.80;;;20.30;99.90;;;;;;5094394;28;20191;-68
2022/05/17 06:24:33;;;;;;;4.83;0.77;;;20.20;99.90;;;;;;5094229;28;20185;-67
2022/05/17 06:27:02;;;;;;;2.83;0.77;;;20.10;99.90;;;;;;5094064;28;20994;-68
2022/05/17 06:29:30;;;;;;;1.13;0.60;;;20.00;99.90;;;;;;5093759;28;20223;-67
2022/05/17 06:31:58;;;;;;;1.80;0.80;;;19.80;99.90;;;;;;5093475;28;20180;-68
2022/05/17 06:34:26;;;;;;;3.33;0.80;;;19.60;99.90;;;;;;5093327;28;20179;-67
2022/05/17 06:36:53;;;;;;;2.80;0.77;;;19.40;99.90;;;;;;5093345;28;20223;-67
2022/05/17 06:39:21;;;;;;;2.70;0.90;;;19.40;99.90;;;;;;5091988;28;20588;-68
2022/05/17 06:41:51;;;;;;;3.70;1.07;;;19.30;99.90;;;;;;5091876;28;20177;-67
2022/05/17 06:44:18;;;;;;;2.27;1.03;;;19.20;99.90;;;;;;5092999;28;20186;-68
2022/05/17 06:46:46;;;;;;;3.13;1.57;;;19.20;99.90;;;;;;5093384;28;20272;-67
2022/05/17 06:49:14;;;;;;;2.70;1.43;;;19.20;99.90;;;;;;5092936;28;20238;-67
2022/05/17 06:51:42;;;;;;;7.10;1.57;;;19.10;99.90;;;;;;5093404;28;20175;-69
2022/05/17 06:54:10;;;;;;;2.93;1.70;;;19.00;99.90;;;;;;5093610;28;20223;-69
2022/05/17 06:56:39;;;;;;;4.30;1.30;;;18.80;99.90;;;;;;5091888;28;20214;-67
2022/05/17 06:59:08;;;;;;;6.70;1.30;;;18.40;99.90;;;;;;5093347;28;20215;-69
2022/05/17 07:01:36;;;;;;;2.90;0.90;;;18.20;99.90;;;;;;5093537;28;20597;-68
2022/05/17 07:04:04;;;;;;;3.63;0.90;;;17.90;99.90;;;;;;5093424;28;20226;-68
2022/05/17 07:06:32;;;;;;;1.70;0.90;;;17.70;99.90;;;;;;5093540;28;20171;-69
2022/05/17 07:08:59;;;;;;;2.70;0.97;;;17.50;99.90;;;;;;5093673;28;20171;-68
2022/05/17 07:14:15;;;;;;;4.93;1.37;;;17.10;99.90;;;;;;5092367;28;20209;-67
2022/05/17 07:16:42;;;;;;;2.20;1.13;;;16.90;99.90;;;;;;5093020;28;20172;-68
2022/05/17 07:19:11;;;;;;;5.13;1.70;;;16.80;99.90;;;;;;5093152;28;20369;-66
2022/05/17 07:21:39;;;;;;;4.00;1.40;;;16.80;99.90;;;;;;5093291;28;20878;-67
2022/05/17 07:24:07;;;;;;;3.10;1.30;;;16.80;99.90;;;;;;5093083;28;20183;-68
2022/05/17 07:26:34;;;;;;;5.30;1.90;;;16.90;99.90;;;;;;5093032;28;20555;-68
2022/05/17 07:29:02;;;;;;;6.53;1.80;;;16.90;99.90;;;;;;5092224;28;20186;-69
2022/05/17 07:31:30;;;;;;;3.00;1.40;;;17.00;99.90;;;;;;5093221;28;20234;-72
2022/05/17 07:33:58;;;;;;;4.90;1.70;;;17.00;99.90;;;;;;5092738;28;20190;-68
2022/05/17 07:36:26;;;;;;;3.87;1.80;;;17.00;99.90;;;;;;5091529;28;20267;-68
2022/05/17 07:38:54;;;;;;;5.77;1.90;;;16.80;99.90;;;;;;5090767;28;20211;-68
2022/05/17 07:41:22;;;;;;;3.03;1.47;;;16.70;99.90;;;;;;5091234;28;20189;-68
2022/05/17 07:43:49;;;;;;;7.47;1.60;;;16.50;99.90;;;;;;5091093;28;20180;-67
2022/05/17 07:46:17;;;;;;;2.67;1.30;;;16.30;99.90;;;;;;5091012;28;20915;-68
2022/05/17 07:48:45;;;;;;;4.37;1.87;;;16.10;99.90;;;;;;5090068;28;20531;-68
2022/05/17 07:51:12;;;;;;;6.50;2.10;;;16.00;99.90;;;;;;5092076;28;20655;-68
2022/05/17 07:53:41;;;;;;;6.10;2.77;;;16.00;99.90;;;;;;5092832;28;20312;-69
2022/05/17 07:56:09;;;;;;;4.30;3.90;;;16.00;99.90;;;;;;5091207;28;20528;-68
2022/05/17 07:58:36;;;;;;;5.23;1.93;;;16.10;99.90;;;;;;5091405;28;20372;-68
2022/05/17 08:01:04;;;;;;;5.50;2.80;;;16.10;99.90;;;;;;5092765;28;20179;-68
2022/05/17 08:03:32;;;;;;;7.73;3.53;;;16.10;99.90;;;;;;5092682;28;20216;-68
2022/05/17 08:06:01;;;;;;;8.53;2.40;;;16.00;99.90;;;;;;5092709;28;20175;-68
2022/05/17 08:08:28;;;;;;;8.93;2.73;;;16.00;99.90;;;;;;5092395;28;20575;-68
2022/05/17 08:10:56;;;;;;;9.27;2.60;;;15.80;99.90;;;;;;5091927;28;20284;-68
2022/05/17 08:13:25;;;;;;;4.80;2.63;;;15.70;99.90;;;;;;5091252;28;20187;-68
2022/05/17 08:15:53;;;;;;;7.33;2.20;;;15.60;99.90;;;;;;5091746;28;20655;-69
2022/05/17 08:18:21;;;;;;;6.80;2.27;;;15.50;99.90;;;;;;5075015;28;20211;-67
2022/05/17 08:20:49;;;;;;;5.17;2.00;;;15.40;99.90;;;;;;5091831;28;20183;-68
2022/05/17 08:23:17;;;;;;;4.47;2.00;;;15.40;99.90;;;;;;5092210;28;20183;-68
2022/05/17 08:28:30;;;;;;;6.13;2.10;;;15.30;99.90;;;;;;5089149;28;20194;-66
2022/05/17 08:30:58;;;;;;;5.53;2.30;;;15.10;99.90;;;;;;5092060;28;20269;-67
2022/05/17 08:33:26;;;;;;;3.60;1.83;;;15.00;99.90;;;;;;5091941;28;20242;-68
2022/05/17 08:36:11;;;;;;;4.67;1.93;;;14.90;99.90;;;;;;5092949;28;20211;-69
2022/05/17 08:38:44;;;;;;;4.60;1.87;;;14.80;99.90;;;;;;5093105;28;20257;-68
2022/05/17 08:41:41;;;;;;;2.87;1.57;;;14.70;99.90;;;;;;5092954;28;20236;-69
2022/05/17 08:44:12;;;;;;;4.10;1.57;;;14.50;99.90;;;;;;5092886;28;20175;-69
2022/05/17 08:47:11;;;;;;;3.53;1.57;;;14.40;99.90;;;;;;5093451;28;20178;-69
2022/05/17 08:50:02;;;;;;;8.33;1.60;;;14.30;99.90;;;;;;5091630;28;20637;-68
2022/05/17 08:52:32;;;;;;;4.33;1.70;;;14.20;99.90;;;;;;5092238;28;20187;-69
2022/05/17 08:55:29;;;;;;;5.17;1.80;;;14.20;99.90;;;;;;5093061;28;20539;-69
2022/05/17 08:58:19;;;;;;;4.57;2.07;;;14.10;99.90;;;;;;5092726;28;20230;-69
2022/05/17 09:00:54;;;;;;;4.13;1.97;;;14.00;99.90;;;;;;5081382;28;20190;-68
2022/05/17 09:03:56;;;;;;;7.57;2.47;;;13.90;99.90;;;;;;5093307;28;20182;-68
2022/05/17 09:07:06;;;;;;;4.70;1.97;;;13.80;99.90;;;;;;5092054;28;20179;-68
2022/05/17 09:10:02;;;;;;;9.10;2.30;;;13.70;99.90;;;;;;5025021;28;20667;-67
2022/05/17 09:12:44;;;;;;;9.57;2.10;;;13.70;99.90;;;;;;5092786;28;20179;-67
2022/05/17 09:15:16;;;;;;;4.23;1.90;;;13.60;99.90;;;;;;5092858;28;20198;-68
2022/05/17 09:17:45;;;;;;;5.93;1.97;;;13.50;99.90;;;;;;5092809;28;20178;-69
2022/05/17 09:20:21;;;;;;;9.13;2.03;;;13.50;99.90;;;;;;5089503;28;20174;-69
2022/05/17 09:22:50;;;;;;;3.23;1.70;;;13.40;99.90;;;;;;5091067;28;20644;-68
2022/05/17 09:25:28;;;;;;;4.57;2.10;;;13.40;99.90;;;;;;5092211;28;20175;-69
2022/05/17 09:28:02;;;;;;;5.20;2.00;;;13.30;99.90;;;;;;5092843;28;20258;-65
2022/05/17 09:30:36;;;;;;;6.27;1.80;;;13.30;99.90;;;;;;5092685;28;20270;-66
2022/05/17 09:33:15;;;;;;;3.53;1.57;;;13.20;99.90;;;;;;5092450;28;20661;-66
2022/05/17 09:35:58;;;;;;;5.70;2.07;;;13.20;99.90;;;;;;5091608;28;20174;-68
2022/05/17 09:38:31;;;;;;;3.20;1.57;;;13.10;99.90;;;;;;5093858;28;20305;-66
2022/05/17 09:40:59;;;;;;;2.67;1.70;;;13.10;99.90;;;;;;5093882;28;20206;-66
2022/05/17 09:43:51;;;;;;;2.83;1.37;;;13.10;99.90;;;;;;5092730;28;20200;-68
2022/05/17 09:46:42;;;;;;;3.10;1.63;;;13.00;99.90;;;;;;5093019;28;20192;-69
2022/05/17 09:53:01;;;;;;;1.67;1.10;;;12.90;99.90;;;;;;5096114;28;20296;-67
2022/05/17 09:55:37;;;;;;;2.60;1.20;;;12.80;99.90;;;;;;5096014;28;20178;-69
2022/05/17 09:58:11;;;;;;;3.30;1.57;;;12.70;99.90;;;;;;5095717;28;20290;-69
2022/05/17 10:00:46;;;;;;;5.80;1.80;;;12.80;99.90;;;;;;5096158;28;20229;-67
2022/05/17 10:03:40;;;;;;;4.80;1.80;;;12.80;99.90;;;;;;5095846;28;20177;-68
2022/05/17 10:06:29;;;;;;;4.53;1.90;;;12.80;99.90;;;;;;5089353;28;20195;-68
2022/05/17 10:09:27;;;;;;;3.90;1.83;;;12.70;99.90;;;;;;5096057;28;20167;-68
2022/05/17 10:12:10;;;;;;;3.67;1.67;;;12.60;99.90;;;;;;5095429;28;20222;-66
2022/05/17 10:15:12;;;;;;;4.83;2.30;;;12.60;99.90;;;;;;5095408;28;20179;-67
2022/05/17 10:17:55;;;;;;;5.30;2.57;;;12.60;99.90;;;;;;5091422;28;20229;-68
2022/05/17 10:20:48;;;;;;;5.03;1.90;;;12.50;99.90;;;;;;5094404;28;20281;-70
2022/05/17 10:23:37;;;;;;;4.33;1.90;;;12.50;99.90;;;;;;5095702;28;20203;-69
2022/05/17 10:26:12;;;;;;;2.90;1.60;;;12.40;99.90;;;;;;5093730;28;20337;-68
2022/05/17 10:28:46;;;;;;;4.80;1.87;;;12.30;99.90;;;;;;5095101;28;20193;-68
2022/05/17 10:31:43;;;;;;;10.13;2.27;;;12.20;99.90;;;;;;5095418;28;20679;-68
2022/05/17 10:34:33;;;;;;;4.27;1.73;;;12.20;99.90;;;;;;5084123;28;20238;-67
2022/05/17 10:37:53;;;;;;;5.63;1.90;;;12.00;99.90;;;;;;5094140;28;20181;-67
2022/05/17 10:40:52;;;;;;;3.00;1.50;;;12.00;99.90;;;;;;5074105;28;20601;-68
2022/05/17 10:43:44;;;;;;;3.33;1.50;;;11.90;99.90;;;;;;5091614;28;20654;-67
2022/05/17 10:46:36;;;;;;;5.13;1.83;;;11.80;99.90;;;;;;5094502;28;20189;-69
2022/05/17 10:49:35;;;;;;;4.87;2.07;;;11.80;99.90;;;;;;5094273;28;20288;-68
2022/05/17 10:52:31;;;;;;;5.87;1.70;;;11.70;99.90;;;;;;5095274;28;20196;-68
2022/05/17 10:55:14;;;;;;;2.43;1.50;;;11.70;99.90;;;;;;5089515;28;20195;-68
2022/05/17 10:58:24;;;;;;;5.10;1.60;;;11.70;99.90;;;;;;5093862;28;20561;-69
2022/05/17 11:01:03;;;;;;;1.70;1.43;;;11.60;99.90;;;;;;5074275;28;20190;-69
2022/05/17 11:03:58;;;;;;;4.00;1.70;;;11.50;99.90;;;;;;5082486;28;20180;-67
2022/05/17 11:07:18;;;;;;;1.93;1.50;;;11.40;99.90;;;;;;5094558;28;20204;-68
2022/05/17 11:10:30;;;;;;;4.23;1.57;;;11.40;99.90;;;;;;5057497;28;20643;-69
2022/05/17 11:13:12;;;;;;;2.90;1.67;;;11.30;99.90;;;;;;5074744;28;20222;-69
2022/05/17 11:15:45;;;;;;;3.23;1.70;;;11.20;99.90;;;;;;5093228;28;20182;-69
2022/05/17 11:18:34;;;;;;;2.80;1.73;;;11.20;99.90;;;;;;5094046;28;20287;-69
2022/05/17 11:21:10;;;;;;;3.40;1.77;;;11.20;99.90;;;;;;5077972;28;20181;-69
2022/05/17 11:24:07;;;;;;;2.53;1.60;;;11.10;99.90;;;;;;5094750;28;20622;-69
2022/05/17 11:26:47;;;;;;;7.93;2.23;;;11.10;99.90;;;;;;5094612;28;20168;-69
2022/05/17 11:29:21;;;;;;;5.70;1.93;;;11.10;99.90;;;;;;5076766;28;20234;-68
2022/05/17 11:31:56;;;;;;;6.73;1.60;;;11.10;99.90;;;;;;5094174;28;20178;-69
2022/05/17 11:34:26;;;;;;;7.20;2.17;;;11.00;99.90;;;;;;5094347;28;20171;-69
2022/05/17 11:36:57;;;;;;;4.63;1.97;;;10.90;99.90;;;;;;5093848;28;20182;-69
2022/05/17 11:39:53;;;;;;;5.67;2.03;;;10.90;99.90;;;;;;5093781;28;20216;-68
2022/05/17 11:42:34;;;;;;;3.13;1.80;;;10.90;99.90;;;;;;5094306;28;20180;-69
2022/05/17 11:45:24;;;;;;;2.90;1.73;;;10.80;99.90;;;;;;5093910;28;20189;-68
2022/05/17 11:47:52;;;;;;;5.27;1.70;;;10.80;99.90;;;;;;5092661;28;20201;-69
2022/05/17 11:50:56;;;;;;;5.40;2.20;;;10.80;99.90;;;;;;5093481;28;20661;-70
2022/05/17 11:53:24;;;;;;;4.97;1.80;;;10.70;99.90;;;;;;5093184;28;20193;-69
2022/05/17 11:56:32;;;;;;;3.00;1.83;;;10.70;99.90;;;;;;5093561;28;20175;-69
2022/05/17 11:59:19;;;;;;;3.83;2.20;;;10.70;99.90;;;;;;5087784;28;20246;-69
2022/05/17 12:01:50;;;;;;;4.57;1.83;;;10.60;99.90;;;;;;5092640;28;20722;-69
2022/05/17 12:04:24;;;;;;;3.53;2.40;;;10.60;99.90;;;;;;5092482;28;20552;-69
2022/05/17 12:06:55;;;;;;;3.77;2.10;;;10.60;99.90;;;;;;5093424;28;20180;-68
2022/05/17 12:09:47;;;;;;;6.77;2.80;;;10.50;99.90;;;;;;5093721;28;20179;-68
2022/05/17 12:12:44;;;;;;;3.73;2.20;;;10.50;99.90;;;;;;5092987;28;20259;-69
2022/05/17 12:15:18;;;;;;;6.87;2.20;;;10.40;99.90;;;;;;5093316;28;20187;-69
2022/05/17 12:17:55;;;;;;;11.87;2.80;;;10.30;99.90;;;;;;5093325;28;20234;-69
2022/05/17 12:20:50;;;;;;;5.73;2.53;;;10.30;99.90;;;;;;5093278;28;20691;-68
2022/05/17 12:23:53;;;;;;;5.97;2.60;;;10.30;99.90;;;;;;5085921;28;20611;-68
2022/05/17 12:26:25;;;;;;;2.70;2.37;;;10.20;99.90;;;;;;5088599;28;20281;-68
2022/05/17 12:28:53;;;;;;;3.93;2.40;;;10.20;99.90;;;;;;5092781;28;20313;-67
2022/05/17 12:31:27;;;;;;;5.07;2.13;;;10.20;99.90;;;;;;5093207;28;20178;-69
2022/05/17 12:33:56;;;;;;;6.37;2.77;;;10.20;99.90;;;;;;5093356;28;20179;-69
2022/05/17 12:36:32;;;;;;;4.20;2.40;;;10.20;99.90;;;;;;5093081;28;20187;-69
2022/05/17 12:44:57;;;;;;;6.47;2.63;;;10.10;99.90;;;;;;5092879;28;20195;-67
2022/05/17 12:47:56;;;;;;;6.33;2.50;;;10.00;99.90;;;;;;5091736;28;20179;-69
2022/05/17 12:50:36;;;;;;;6.07;2.90;;;10.00;99.90;;;;;;5092783;28;20198;-69
2022/05/17 12:53:14;;;;;;;5.97;2.30;;;10.00;99.90;;;;;;5093031;28;20180;-69
2022/05/17 12:56:05;;;;;;;4.90;2.53;;;10.00;99.90;;;;;;5093067;28;20544;-67
2022/05/17 12:58:36;;;;;;;5.10;2.30;;;9.90;99.90;;;;;;5093011;28;20224;-67
2022/05/17 13:01:08;;;;;;;5.80;2.43;;;9.90;99.90;;;;;;5093103;28;20175;-69
2022/05/17 13:03:42;;;;;;;5.50;3.00;;;9.90;99.90;;;;;;5092921;28;20190;-69
2022/05/17 13:06:09;;;;;;;5.57;2.40;;;9.90;99.90;;;;;;5093159;28;20178;-67
2022/05/17 13:08:39;;;;;;;4.60;2.80;;;9.80;99.90;;;;;;5092963;28;20235;-67
2022/05/17 13:11:23;;;;;;;4.43;2.97;;;9.80;99.90;;;;;;5092986;28;20168;-68
2022/05/17 13:13:58;;;;;;;3.80;2.53;;;9.80;99.90;;;;;;5096477;28;20526;-68
2022/05/17 13:16:31;;;;;;;4.33;2.57;;;9.70;99.90;;;;;;5094543;28;20188;-69
2022/05/17 13:19:04;;;;;;;5.37;1.97;;;9.70;99.90;;;;;;5096916;28;20216;-69
2022/05/17 13:21:37;;;;;;;6.43;3.00;;;9.60;99.90;;;;;;5097212;28;20194;-69
2022/05/17 13:24:18;;;;;;;4.63;2.70;;;9.60;99.90;;;;;;5096648;28;20176;-68
2022/05/17 13:26:49;;;;;;;3.83;2.60;;;9.60;99.90;;;;;;5096978;28;20628;-68
2022/05/17 13:29:34;;;;;;;6.87;2.67;;;9.60;99.90;;;;;;5096679;28;20211;-69
2022/05/17 13:32:05;;;;;;;4.77;2.70;;;9.60;99.90;;;;;;5097063;28;20652;-68
2022/05/17 13:34:37;;;;;;;4.93;2.33;;;9.50;99.90;;;;;;5096304;28;20168;-69
2022/05/17 13:37:04;;;;;;;6.63;2.07;;;9.50;99.90;;;;;;5095255;28;20176;-68
2022/05/17 13:39:40;;;;;;;4.00;2.20;;;9.40;99.90;;;;;;5096091;28;20245;-68